Tesla Net Profit Margin 2010-2022 | TSLA

Current and historical net profit margin for Tesla (TSLA) from 2010 to 2022. Net profit margin can be defined as net Income as a portion of total sales revenue. Tesla net profit margin for the three months ending December 31, 2022 was .
Tesla Net Profit Margin Historical Data
Date TTM Revenue TTM Net Income Net Margin
2022-12-31 $81.46B $12.56B 15.41%
2022-09-30 $74.86B $11.19B 14.95%
2022-06-30 $67.17B $9.52B 14.17%
2022-03-31 $62.19B $8.40B 13.51%
2021-12-31 $53.82B $5.52B 10.25%
2021-09-30 $46.85B $3.50B 7.47%
2021-06-30 $41.86B $2.18B 5.21%
2021-03-31 $35.94B $1.14B 3.18%
2020-12-31 $31.54B $0.72B 2.29%
2020-09-30 $28.18B $0.53B 1.89%
2020-06-30 $25.71B $0.38B 1.46%
2020-03-31 $26.02B $-0.14B -0.52%
2019-12-31 $24.58B $-0.86B -3.51%
2019-09-30 $24.42B $-0.84B -3.42%
2019-06-30 $24.94B $-0.67B -2.67%
2019-03-31 $22.59B $-0.98B -4.32%
2018-12-31 $21.46B $-0.98B -4.55%
2018-09-30 $17.52B $-1.79B -10.23%
2018-06-30 $13.68B $-2.72B -19.90%
2018-03-31 $12.47B $-2.34B -18.77%
2017-12-31 $11.76B $-1.96B -16.68%
2017-09-30 $10.76B $-1.41B -13.07%
2017-06-30 $10.07B $-0.77B -7.60%
2017-03-31 $8.55B $-0.72B -8.45%
2016-12-31 $7.00B $-0.67B -9.63%
2016-09-30 $5.93B $-0.87B -14.72%
2016-06-30 $4.57B $-1.13B -24.63%
2016-03-31 $4.25B $-1.02B -23.89%
2015-12-31 $4.05B $-0.89B -21.95%
2015-09-30 $3.79B $-0.68B -17.84%
2015-06-30 $3.70B $-0.52B -14.07%
2015-03-31 $3.52B $-0.40B -11.34%
2014-12-31 $3.20B $-0.30B -9.22%
2014-09-30 $2.86B $-0.20B -7.11%
2014-06-30 $2.44B $-0.17B -6.81%
2014-03-31 $2.07B $-0.14B -6.52%
2013-12-31 $2.01B $-0.07B -3.68%
2013-09-30 $1.70B $-0.15B -8.69%
2013-06-30 $1.32B $-0.22B -16.70%
2013-03-31 $0.95B $-0.30B -31.32%
2012-12-31 $0.41B $-0.40B -96.13%
2012-09-30 $0.15B $-0.39B -265.75%
2012-06-30 $0.15B $-0.34B -222.08%
2012-03-31 $0.19B $-0.30B -159.46%
2011-12-31 $0.20B $-0.25B -124.51%
2011-09-30 $0.20B $-0.22B -111.44%
2011-06-30 $0.17B $-0.19B -111.49%
2011-03-31 $0.14B $-0.17B -120.83%
2010-12-31 $0.12B $-0.16B -133.62%
2010-06-30 $0.10B $-0.07B -77.89%
2010-03-31 $0.09B $-0.05B -48.94%
Sector Industry Market Cap Revenue
Auto/Tires/Trucks Auto Manufacturers - Domestic $561.764B $81.462B
Tesla is the market leader in battery-powered electric car sales in the United States, with roughly 70% market share. The company's flagship Model 3 is the best-selling EV model in the United States. Tesla, which has managed to garner the reputation of a gold standard over the years, is now a far bigger entity that what it started off since its IPO in 2010, with its market cap crossing $1 trillion for the first time in October 2021.? The EV king's market capitalization is more than the combined value of legacy automakers including Toyota, Volkswagen, Daimler, General Motors and Ford.Over the years, Tesla has shifted from developing niche products for affluent buyers to making more affordable EVs for the masses. The firm's three-pronged business model approach of direct sales, servicing, and charging its EVs sets it apart from other carmakers. Tesla, which is touted as the clean energy revolutionary automaker, is much more than just a car manufacturer.
Stock Name Country Market Cap PE Ratio
General Motors (GM) United States $53.915B 5.56
Ford Motor (F) United States $53.352B 8.19
Harley-Davidson (HOG) United States $6.603B 9.33
Polaris (PII) United States $6.212B 11.75
IAA (IAA) United States $5.514B 17.62
Fisker (FSR) United States $2.445B 0.00
Lion Electric (LEV) Canada $0.516B 0.00
Volta (VLTA) United States $0.144B 0.00
Lightning EMotors (ZEV) United States $0.072B 0.00
Bird Global (BRDS) United States $0.067B 0.00